Deckerville, Michigan
Current Conditions -  °F | °C
As of 7:14 AM on Wednesday 28 Jan 2015 (Local Time) from KBAX Reporting Station
Clear Clear  
Wind Chill:   Ceiling: Unl
Heat Index:   Visibility: 10mi
Dew Point: -3°   Wind: 0mph
Humidity: 88%   Direction: NA
Pressure: 30.32"   Gusts: NA
Location:  43.53°N, 82.74°W
Report Text: KBAX 281214Z AUTO 00000KT 10SM CLR M18/M19 A3032 RMK AO2 T11771192
Loading
Personal Weather Stations






























Interactive Weather Map New forecast layout! Learn more

10-Day Weather Forecast

Advertisements
Track Severe Weather on mobile